Time;durP1;ratioP1;P1;durP2;ratioP2;P2;SDS_P1;SDS_P2;PMS_P1;PMS_P2;Temp;Humidity;BMP_temperature;BMP_pressure;BME280_temperature;BME280_humidity;BME280_pressure;Samples;Min_cycle;Max_cycle;Signal;HPM_P1;HPM_P2
2023/11/08 00:02:21;;;;;;;4.80;1.13;;;9.40;99.90;;;;;;7282569;19;20189;-88
2023/11/08 00:04:46;;;;;;;5.03;1.30;;;9.40;99.90;;;;;;7279915;19;20250;-89
2023/11/08 00:07:12;;;;;;;6.73;1.30;;;9.40;99.90;;;;;;7283202;19;20190;-88
2023/11/08 00:09:38;;;;;;;7.07;1.30;;;9.30;99.90;;;;;;7283333;19;20253;-88
2023/11/08 00:12:04;;;;;;;4.40;0.97;;;9.40;99.90;;;;;;7304973;19;20187;-89
2023/11/08 00:14:31;;;;;;;3.50;1.17;;;9.30;99.90;;;;;;7283141;19;20270;-89
2023/11/08 00:16:57;;;;;;;6.50;1.27;;;9.30;99.90;;;;;;7277731;19;20201;-89
2023/11/08 00:19:23;;;;;;;4.63;1.03;;;9.30;99.90;;;;;;7279984;19;20181;-89
2023/11/08 00:21:50;;;;;;;4.03;1.00;;;9.30;99.90;;;;;;7281197;19;20523;-88
2023/11/08 00:24:15;;;;;;;3.77;1.00;;;9.30;99.90;;;;;;7280935;19;20205;-88
2023/11/08 00:26:41;;;;;;;9.53;1.30;;;9.40;99.90;;;;;;7282425;19;20533;-87
2023/11/08 00:29:07;;;;;;;5.50;1.10;;;9.40;99.90;;;;;;7287715;19;20185;-86
2023/11/08 00:31:33;;;;;;;2.57;0.90;;;9.40;99.90;;;;;;7304697;19;20541;-89
2023/11/08 00:33:58;;;;;;;4.47;0.83;;;9.30;99.90;;;;;;7282752;19;20181;-88
2023/11/08 00:36:24;;;;;;;4.87;1.33;;;9.20;99.90;;;;;;7282225;19;20214;-88
2023/11/08 00:38:50;;;;;;;6.00;1.20;;;9.30;99.90;;;;;;7279692;19;20547;-88
2023/11/08 00:41:16;;;;;;;7.67;1.47;;;9.40;99.90;;;;;;7280275;19;20213;-88
2023/11/08 00:43:42;;;;;;;4.77;1.30;;;9.40;99.90;;;;;;7281016;19;20195;-88
2023/11/08 00:46:08;;;;;;;6.70;1.20;;;9.30;99.90;;;;;;7280374;19;20185;-88
2023/11/08 00:48:38;;;;;;;5.80;1.20;;;9.30;99.90;;;;;;7302885;19;20196;-89
2023/11/08 00:51:04;;;;;;;5.20;1.20;;;9.40;99.90;;;;;;7280800;19;20185;-89
2023/11/08 00:53:31;;;;;;;6.10;1.40;;;9.40;99.90;;;;;;7282107;19;20249;-88
2023/11/08 00:55:57;;;;;;;3.23;1.07;;;9.30;99.90;;;;;;7281584;19;20187;-88
2023/11/08 00:58:23;;;;;;;5.40;1.40;;;9.30;99.90;;;;;;7279288;19;20211;-88
2023/11/08 01:00:49;;;;;;;8.23;1.43;;;9.30;99.90;;;;;;7282135;19;20263;-88
2023/11/08 01:03:17;;;;;;;5.77;1.70;;;9.30;99.90;;;;;;7280022;19;20195;-89
2023/11/08 01:05:44;;;;;;;9.00;1.33;;;9.30;99.90;;;;;;7279421;19;20193;-88
2023/11/08 01:08:13;;;;;;;7.70;1.23;;;9.30;99.90;;;;;;7279866;19;20197;-88
2023/11/08 01:10:43;;;;;;;8.77;1.30;;;9.30;99.90;;;;;;7278317;19;20187;-88
2023/11/08 01:13:09;;;;;;;6.07;1.70;;;9.20;99.90;;;;;;7280484;19;20189;-89
2023/11/08 01:15:39;;;;;;;6.80;1.47;;;9.30;99.90;;;;;;7301638;19;20205;-88
2023/11/08 01:18:05;;;;;;;5.23;1.40;;;9.30;99.90;;;;;;7280471;19;20194;-88
2023/11/08 01:20:31;;;;;;;6.97;1.30;;;9.30;99.90;;;;;;7282492;19;20211;-88
2023/11/08 01:22:58;;;;;;;8.57;1.70;;;9.30;99.90;;;;;;7279591;19;20187;-88
2023/11/08 01:25:24;;;;;;;10.07;1.80;;;9.30;99.90;;;;;;7278681;19;20186;-88
2023/11/08 01:27:51;;;;;;;5.10;1.60;;;9.20;99.90;;;;;;7280236;19;20189;-88
2023/11/08 01:30:17;;;;;;;8.03;1.63;;;9.20;99.90;;;;;;7279678;19;20186;-88
2023/11/08 01:32:43;;;;;;;6.93;1.43;;;9.10;99.90;;;;;;7280654;19;20206;-88
2023/11/08 01:35:11;;;;;;;6.63;1.53;;;9.20;99.90;;;;;;7279636;19;20230;-88
2023/11/08 01:37:39;;;;;;;11.30;1.83;;;9.20;99.90;;;;;;7285780;19;20316;-89
2023/11/08 01:40:08;;;;;;;6.50;1.77;;;9.10;99.90;;;;;;7306133;19;20210;-87
2023/11/08 01:42:34;;;;;;;5.93;1.30;;;9.10;99.90;;;;;;7286282;19;20300;-88
2023/11/08 01:45:02;;;;;;;7.90;1.67;;;9.10;99.90;;;;;;7285763;19;20197;-88
2023/11/08 01:47:29;;;;;;;8.80;1.60;;;9.10;99.90;;;;;;7286838;19;20194;-88
2023/11/08 01:49:54;;;;;;;6.53;1.30;;;9.10;99.90;;;;;;7286342;19;20196;-88
2023/11/08 01:52:22;;;;;;;7.67;2.00;;;9.10;99.90;;;;;;7286475;19;20213;-88
2023/11/08 01:54:50;;;;;;;8.27;1.60;;;9.10;99.90;;;;;;7286563;19;20654;-88
2023/11/08 01:57:17;;;;;;;7.73;1.83;;;9.00;99.90;;;;;;7286678;19;20186;-88
2023/11/08 01:59:45;;;;;;;8.73;1.60;;;9.00;99.90;;;;;;7288320;19;20191;-88
2023/11/08 02:02:11;;;;;;;7.10;1.70;;;9.00;99.90;;;;;;7285933;19;20178;-89
2023/11/08 02:04:36;;;;;;;8.23;1.70;;;9.00;99.90;;;;;;7296950;19;20274;-88
2023/11/08 02:07:02;;;;;;;9.13;2.13;;;9.00;99.90;;;;;;7306855;19;20275;-88
2023/11/08 02:09:29;;;;;;;7.83;1.30;;;9.10;99.90;;;;;;7285151;19;20631;-88
2023/11/08 02:11:58;;;;;;;8.63;1.37;;;9.00;99.90;;;;;;7286415;19;20194;-88
2023/11/08 02:14:25;;;;;;;10.00;1.80;;;9.00;99.90;;;;;;7285935;19;20204;-88
2023/11/08 02:16:51;;;;;;;7.60;1.67;;;9.00;99.90;;;;;;7283360;19;20198;-89
2023/11/08 02:19:16;;;;;;;8.50;1.60;;;9.00;99.90;;;;;;7285522;19;20286;-88
2023/11/08 02:21:43;;;;;;;8.23;1.43;;;9.00;99.90;;;;;;7286483;19;20190;-88
2023/11/08 02:24:29;;;;;;;8.70;1.53;;;9.00;99.90;;;;;;7284818;19;20237;-88
2023/11/08 02:26:54;;;;;;;8.77;1.50;;;9.00;99.90;;;;;;7284972;19;20185;-88
2023/11/08 02:29:20;;;;;;;8.97;1.63;;;9.00;99.90;;;;;;7286146;19;20189;-88
2023/11/08 02:31:50;;;;;;;10.10;1.63;;;9.10;99.90;;;;;;7286184;19;20201;-88
2023/11/08 02:34:16;;;;;;;8.03;1.43;;;9.00;99.90;;;;;;7285391;19;20284;-88
2023/11/08 02:36:42;;;;;;;8.03;1.40;;;9.00;99.90;;;;;;7285819;19;20193;-88
2023/11/08 02:39:08;;;;;;;8.87;1.50;;;9.00;99.90;;;;;;7284754;19;20186;-88
2023/11/08 02:41:35;;;;;;;9.73;1.40;;;9.10;99.90;;;;;;7306917;19;20205;-88
2023/11/08 02:44:00;;;;;;;3.83;1.30;;;9.10;99.90;;;;;;7283576;19;20214;-88
2023/11/08 02:46:27;;;;;;;10.20;1.93;;;9.10;99.90;;;;;;7282835;19;20223;-89
2023/11/08 02:48:56;;;;;;;8.70;1.70;;;9.10;99.90;;;;;;7283807;19;20200;-88
2023/11/08 02:51:24;;;;;;;4.60;1.50;;;9.10;99.90;;;;;;7283843;19;20185;-88
2023/11/08 02:53:49;;;;;;;8.83;1.47;;;9.10;99.90;;;;;;7285012;19;20199;-88
2023/11/08 02:56:15;;;;;;;9.13;1.53;;;9.00;99.90;;;;;;7284806;19;20186;-87
2023/11/08 02:58:41;;;;;;;7.73;1.50;;;9.10;99.90;;;;;;7284548;19;20198;-87
2023/11/08 03:01:07;;;;;;;8.93;1.37;;;9.20;99.90;;;;;;7293143;19;20190;-88
2023/11/08 03:03:33;;;;;;;6.73;1.50;;;9.10;99.90;;;;;;7304319;19;20205;-87
2023/11/08 03:05:59;;;;;;;14.33;1.60;;;9.10;99.90;;;;;;7284533;19;20186;-88
2023/11/08 03:08:25;;;;;;;8.13;1.43;;;9.10;99.90;;;;;;7284772;19;20198;-88
2023/11/08 03:10:50;;;;;;;6.43;1.50;;;9.10;99.90;;;;;;7284058;19;20201;-88
2023/11/08 03:13:16;;;;;;;6.13;1.77;;;9.10;99.90;;;;;;7285550;19;20190;-89
2023/11/08 03:15:42;;;;;;;7.27;1.63;;;9.20;99.90;;;;;;7284389;19;20197;-88
2023/11/08 03:18:08;;;;;;;8.47;1.70;;;9.20;99.90;;;;;;7283285;19;20191;-87
2023/11/08 03:20:35;;;;;;;6.60;1.10;;;9.20;99.90;;;;;;7306305;19;20205;-88
2023/11/08 03:23:01;;;;;;;7.33;1.57;;;9.20;99.90;;;;;;7284642;19;20217;-88
2023/11/08 03:25:27;;;;;;;9.07;1.70;;;9.30;99.90;;;;;;7284044;19;20194;-88
2023/11/08 03:27:52;;;;;;;7.80;1.67;;;9.30;99.90;;;;;;7284456;19;20202;-88
2023/11/08 03:30:18;;;;;;;8.70;1.80;;;9.20;99.90;;;;;;7284457;19;20853;-89
2023/11/08 03:32:45;;;;;;;5.93;1.83;;;9.30;99.90;;;;;;7284351;19;20186;-88
2023/11/08 03:35:13;;;;;;;5.17;1.43;;;9.30;99.90;;;;;;7285093;19;20687;-89
2023/11/08 03:37:40;;;;;;;11.27;1.90;;;9.30;99.90;;;;;;7283935;19;20262;-88
2023/11/08 03:40:11;;;;;;;12.10;2.10;;;9.30;99.90;;;;;;7306380;19;20661;-88
2023/11/08 03:42:39;;;;;;;8.10;1.80;;;9.40;99.90;;;;;;7272061;19;20277;-88
2023/11/08 03:45:06;;;;;;;10.43;2.17;;;9.40;99.90;;;;;;7305741;19;20198;-88
2023/11/08 03:47:31;;;;;;;8.57;2.50;;;9.50;99.90;;;;;;7283848;19;20233;-88
2023/11/08 03:49:58;;;;;;;12.70;2.57;;;9.50;99.90;;;;;;7284104;19;20187;-88
2023/11/08 03:52:23;;;;;;;11.83;3.23;;;9.60;99.90;;;;;;7284240;19;20193;-89
2023/11/08 03:54:50;;;;;;;13.73;3.30;;;9.70;99.90;;;;;;7282532;19;20199;-89
2023/11/08 03:57:16;;;;;;;9.10;2.77;;;9.70;99.90;;;;;;7284627;19;20676;-88
2023/11/08 03:59:42;;;;;;;13.40;2.50;;;9.80;99.90;;;;;;7281870;19;20299;-88
2023/11/08 04:02:07;;;;;;;10.63;2.83;;;9.80;99.90;;;;;;7282086;19;20194;-89
2023/11/08 04:04:35;;;;;;;11.20;3.07;;;9.90;99.90;;;;;;7305462;19;20222;-88
2023/11/08 04:07:02;;;;;;;10.23;2.90;;;9.90;99.90;;;;;;7283722;19;20255;-88
2023/11/08 04:09:27;;;;;;;15.27;3.20;;;9.90;99.90;;;;;;7283717;19;20604;-89
2023/11/08 04:11:53;;;;;;;13.37;3.30;;;9.90;99.90;;;;;;7284922;19;20194;-88
2023/11/08 04:14:19;;;;;;;11.87;3.30;;;9.90;99.90;;;;;;7285378;19;20188;-89
2023/11/08 04:16:45;;;;;;;13.37;4.10;;;9.80;99.90;;;;;;7284238;19;20184;-88
2023/11/08 04:19:11;;;;;;;12.53;4.37;;;9.80;99.90;;;;;;7283643;19;20193;-89
2023/11/08 04:21:36;;;;;;;15.67;4.07;;;9.70;99.90;;;;;;7298422;19;20218;-88
2023/11/08 04:24:03;;;;;;;13.70;3.60;;;9.70;99.90;;;;;;7298887;19;20186;-88
2023/11/08 04:26:30;;;;;;;15.70;3.83;;;9.70;99.90;;;;;;7282921;19;20206;-88
2023/11/08 04:28:58;;;;;;;14.70;3.83;;;9.70;99.90;;;;;;7285059;19;20887;-88
2023/11/08 04:31:24;;;;;;;12.87;3.70;;;9.80;99.90;;;;;;7283938;19;20805;-88
2023/11/08 04:33:51;;;;;;;19.93;4.23;;;9.90;99.90;;;;;;7283281;19;20193;-88
2023/11/08 04:36:17;;;;;;;15.73;3.50;;;9.90;99.90;;;;;;7283275;19;20198;-88
2023/11/08 04:38:45;;;;;;;16.37;3.90;;;9.80;99.90;;;;;;7283714;19;20666;-88
2023/11/08 04:41:19;;;;;;;12.03;3.53;;;9.80;99.90;;;;;;7282516;19;20194;-88
2023/11/08 04:43:44;;;;;;;13.00;3.60;;;9.90;99.90;;;;;;7284054;19;20191;-88
2023/11/08 04:46:11;;;;;;;14.13;3.63;;;9.90;99.90;;;;;;7280687;19;20662;-89
2023/11/08 04:48:40;;;;;;;12.77;4.20;;;9.90;99.90;;;;;;7295789;19;20644;-88
2023/11/08 04:51:06;;;;;;;14.57;3.93;;;9.90;99.90;;;;;;7305965;19;20210;-89
2023/11/08 04:53:32;;;;;;;15.37;4.17;;;10.10;99.90;;;;;;7285097;19;20206;-89
2023/11/08 04:55:58;;;;;;;14.23;4.47;;;10.10;99.90;;;;;;7284369;19;20224;-89
2023/11/08 04:58:27;;;;;;;18.07;3.97;;;10.00;99.90;;;;;;7293295;19;20205;-90
2023/11/08 05:00:53;;;;;;;16.63;4.50;;;10.00;99.90;;;;;;7311109;19;20549;-89
2023/11/08 05:03:19;;;;;;;16.43;4.47;;;10.00;99.90;;;;;;7280435;19;20195;-89
2023/11/08 05:05:45;;;;;;;18.50;5.00;;;10.00;99.90;;;;;;7282745;19;20204;-89
2023/11/08 05:08:11;;;;;;;17.50;4.73;;;10.00;99.90;;;;;;7282814;19;20187;-89
2023/11/08 05:10:37;;;;;;;15.27;4.80;;;10.00;99.90;;;;;;7297022;19;20729;-89
2023/11/08 05:13:03;;;;;;;17.23;5.03;;;10.00;99.90;;;;;;7308545;19;20216;-89
2023/11/08 05:15:30;;;;;;;16.10;4.63;;;10.00;99.90;;;;;;7290745;19;20187;-89
2023/11/08 05:17:57;;;;;;;19.20;4.80;;;10.00;99.90;;;;;;7289672;19;20195;-88
2023/11/08 05:20:25;;;;;;;15.70;4.57;;;9.90;99.90;;;;;;7290150;19;20210;-88
2023/11/08 05:22:51;;;;;;;16.13;4.27;;;9.80;99.90;;;;;;7289079;19;20190;-89
2023/11/08 05:25:17;;;;;;;14.50;4.80;;;9.80;99.90;;;;;;7288701;19;20215;-89
2023/11/08 05:27:43;;;;;;;17.83;5.80;;;9.70;99.90;;;;;;7288765;19;20247;-88
2023/11/08 05:30:09;;;;;;;18.60;6.10;;;9.70;99.90;;;;;;7287527;19;20187;-88
2023/11/08 05:32:36;;;;;;;16.13;5.87;;;9.70;99.90;;;;;;7310123;19;20250;-88
2023/11/08 05:35:04;;;;;;;22.40;6.20;;;9.60;99.90;;;;;;7288306;19;20191;-88
2023/11/08 05:37:30;;;;;;;20.27;6.07;;;9.60;99.90;;;;;;7289435;19;20183;-90
2023/11/08 05:39:56;;;;;;;20.33;5.67;;;9.70;99.90;;;;;;7289252;19;20630;-88
2023/11/08 05:42:22;;;;;;;21.73;5.33;;;9.60;99.90;;;;;;7288900;19;20186;-88
2023/11/08 05:44:54;;;;;;;20.77;5.43;;;9.50;99.90;;;;;;7286683;19;20571;-88
2023/11/08 05:47:20;;;;;;;16.43;5.00;;;9.40;99.90;;;;;;7287314;19;20182;-88
2023/11/08 05:49:46;;;;;;;15.97;5.50;;;9.40;99.90;;;;;;7289054;19;20189;-88
2023/11/08 05:52:12;;;;;;;18.67;5.20;;;9.50;99.90;;;;;;7287568;19;20183;-88
2023/11/08 05:54:38;;;;;;;19.55;6.20;;;9.50;99.90;;;;;;7290810;19;20727;-91
2023/11/08 05:57:04;;;;;;;17.73;5.37;;;9.50;99.90;;;;;;7311320;19;20183;-90
2023/11/08 05:59:29;;;;;;;25.20;6.93;;;9.60;99.90;;;;;;7287469;19;20195;-91
2023/11/08 06:01:55;;;;;;;15.33;5.57;;;9.70;99.90;;;;;;7289300;19;20183;-90
2023/11/08 06:04:21;;;;;;;21.60;6.30;;;9.60;99.90;;;;;;7292179;19;20196;-92
2023/11/08 06:06:48;;;;;;;20.67;6.40;;;9.50;99.90;;;;;;7292550;19;20198;-88
2023/11/08 06:09:14;;;;;;;19.30;6.40;;;9.50;99.90;;;;;;7291342;19;20234;-88
2023/11/08 06:11:41;;;;;;;18.63;6.43;;;9.50;99.90;;;;;;7290443;19;20186;-87
2023/11/08 06:14:07;;;;;;;21.97;6.73;;;9.50;99.90;;;;;;7304446;19;20186;-87
2023/11/08 06:16:34;;;;;;;17.93;5.93;;;9.40;99.90;;;;;;7309442;19;20199;-86
2023/11/08 06:19:01;;;;;;;21.63;6.50;;;9.40;99.90;;;;;;7287723;19;20621;-86
2023/11/08 06:21:27;;;;;;;18.83;6.03;;;9.40;99.90;;;;;;7288271;19;20718;-87
2023/11/08 06:23:52;;;;;;;21.07;6.20;;;9.30;99.90;;;;;;7282163;19;20202;-87
2023/11/08 06:26:19;;;;;;;17.73;5.90;;;9.40;99.90;;;;;;7287739;19;20193;-87
2023/11/08 06:28:45;;;;;;;19.80;6.53;;;9.30;99.90;;;;;;7288121;19;20223;-90
2023/11/08 06:31:12;;;;;;;18.63;6.17;;;9.40;99.90;;;;;;7287426;19;20195;-92
2023/11/08 06:33:41;;;;;;;19.83;6.60;;;9.40;99.90;;;;;;7294203;19;21048;-91
2023/11/08 06:36:10;;;;;;;19.40;6.53;;;9.30;99.90;;;;;;7305137;19;20199;-91
2023/11/08 06:38:35;;;;;;;19.57;6.90;;;9.30;99.90;;;;;;7311671;19;20190;-90
2023/11/08 06:41:01;;;;;;;15.23;5.17;;;9.30;99.90;;;;;;7285803;19;20185;-90
2023/11/08 06:43:27;;;;;;;15.73;4.80;;;9.20;99.90;;;;;;7287334;19;20215;-90
2023/11/08 06:45:53;;;;;;;17.00;5.23;;;9.10;99.90;;;;;;7287374;19;20199;-90
2023/11/08 06:48:18;;;;;;;15.47;5.07;;;9.20;99.90;;;;;;7288600;19;20220;-90
2023/11/08 06:50:44;;;;;;;14.80;4.40;;;9.20;99.90;;;;;;7285183;19;20668;-90
2023/11/08 06:53:10;;;;;;;16.97;4.63;;;9.10;99.90;;;;;;7286050;19;20186;-90
2023/11/08 06:55:38;;;;;;;13.83;4.77;;;9.10;99.90;;;;;;7310299;19;20186;-90
2023/11/08 06:58:07;;;;;;;14.07;4.33;;;9.00;99.90;;;;;;7286785;19;20185;-89
2023/11/08 07:00:37;;;;;;;16.73;4.53;;;9.10;99.90;;;;;;7287681;19;20189;-90
2023/11/08 07:03:04;;;;;;;17.47;5.20;;;9.20;99.90;;;;;;7287739;19;20665;-89
2023/11/08 07:05:31;;;;;;;15.20;4.67;;;9.30;99.90;;;;;;7286846;19;20189;-90
2023/11/08 07:07:58;;;;;;;19.57;6.47;;;9.30;99.90;;;;;;7287946;19;20207;-89
2023/11/08 07:10:23;;;;;;;16.70;4.73;;;9.20;99.90;;;;;;7284392;19;20189;-91
2023/11/08 07:12:49;;;;;;;20.90;5.40;;;9.30;99.90;;;;;;7284658;19;20558;-89
2023/11/08 07:15:15;;;;;;;15.43;5.17;;;9.30;99.90;;;;;;7287264;19;20311;-91
2023/11/08 07:17:41;;;;;;;15.97;4.97;;;9.30;99.90;;;;;;7286294;19;20231;-90
2023/11/08 07:20:09;;;;;;;15.10;4.70;;;9.30;99.90;;;;;;7300814;19;20199;-90
2023/11/08 07:22:35;;;;;;;15.97;4.97;;;9.30;99.90;;;;;;7309187;19;20183;-90
2023/11/08 07:25:02;;;;;;;18.43;5.30;;;9.40;99.90;;;;;;7287280;19;20217;-92
2023/11/08 07:27:28;;;;;;;13.13;5.10;;;9.30;99.90;;;;;;7286927;19;20186;-91
2023/11/08 07:29:54;;;;;;;16.23;5.37;;;9.30;99.90;;;;;;7285061;19;20282;-91
2023/11/08 07:32:20;;;;;;;17.67;4.93;;;9.30;99.90;;;;;;7287838;19;20214;-91
2023/11/08 07:34:45;;;;;;;18.77;5.10;;;9.30;99.90;;;;;;7293207;19;20321;-91
2023/11/08 07:37:13;;;;;;;14.93;5.00;;;9.40;99.90;;;;;;7293820;19;20194;-91
2023/11/08 07:39:40;;;;;;;15.40;4.80;;;9.40;99.90;;;;;;7295539;19;20198;-90
2023/11/08 07:42:07;;;;;;;14.87;4.90;;;9.40;99.90;;;;;;7313700;19;20182;-91
2023/11/08 07:44:34;;;;;;;13.70;4.60;;;9.50;99.90;;;;;;7293103;19;20239;-90
2023/11/08 07:46:59;;;;;;;16.10;4.90;;;9.50;99.90;;;;;;7293705;19;20193;-91
2023/11/08 07:49:26;;;;;;;11.47;4.83;;;9.70;99.90;;;;;;7291576;19;20193;-91
2023/11/08 07:51:52;;;;;;;10.93;4.30;;;9.60;99.90;;;;;;7283717;19;20271;-92
2023/11/08 07:54:18;;;;;;;14.50;4.80;;;9.70;99.90;;;;;;7283088;19;20278;-90
2023/11/08 07:56:44;;;;;;;13.67;4.83;;;9.70;99.90;;;;;;7283225;19;20190;-90
2023/11/08 07:59:10;;;;;;;12.97;4.83;;;9.80;99.90;;;;;;7283823;19;20265;-91
2023/11/08 08:01:36;;;;;;;16.23;5.27;;;9.70;99.90;;;;;;7304612;19;20211;-91
2023/11/08 08:04:01;;;;;;;13.53;5.10;;;9.80;99.90;;;;;;7284758;19;20198;-90
2023/11/08 08:06:27;;;;;;;14.93;4.93;;;9.80;99.90;;;;;;7283877;19;20287;-90
2023/11/08 08:08:55;;;;;;;15.57;5.30;;;9.70;99.90;;;;;;7283715;19;20206;-91
2023/11/08 08:11:21;;;;;;;13.30;5.67;;;9.70;99.90;;;;;;7282842;19;20257;-91
2023/11/08 08:13:47;;;;;;;15.00;5.80;;;9.70;99.90;;;;;;7283902;19;20201;-91
2023/11/08 08:16:15;;;;;;;13.90;5.10;;;9.70;99.90;;;;;;7282821;19;20202;-91
2023/11/08 08:18:45;;;;;;;17.77;5.57;;;9.60;99.90;;;;;;7287491;19;20271;-90
2023/11/08 08:21:11;;;;;;;15.87;5.83;;;9.60;99.90;;;;;;7284347;19;20676;-90
2023/11/08 08:23:37;;;;;;;14.50;5.77;;;9.50;99.90;;;;;;7300759;19;20406;-93
2023/11/08 08:26:04;;;;;;;12.77;5.70;;;9.60;99.90;;;;;;7298184;19;20190;-90
2023/11/08 08:28:34;;;;;;;16.17;5.67;;;9.60;99.90;;;;;;7283118;19;20193;-89
2023/11/08 08:31:01;;;;;;;13.67;5.70;;;9.70;99.90;;;;;;7282719;19;20187;-92
2023/11/08 08:33:27;;;;;;;14.47;5.57;;;9.70;99.90;;;;;;7284673;19;20235;-91
2023/11/08 08:35:53;;;;;;;14.60;6.10;;;9.80;99.90;;;;;;7286936;19;20190;-90
2023/11/08 08:38:19;;;;;;;12.73;5.27;;;9.80;99.90;;;;;;7286266;19;20189;-90
2023/11/08 08:40:49;;;;;;;12.33;5.53;;;9.90;99.90;;;;;;7285116;19;20210;-90
2023/11/08 08:43:15;;;;;;;18.40;7.10;;;9.90;99.90;;;;;;7283075;19;20181;-91
2023/11/08 08:45:41;;;;;;;14.17;5.60;;;9.80;99.90;;;;;;7281179;19;20187;-90
2023/11/08 08:48:07;;;;;;;12.20;4.60;;;9.90;99.90;;;;;;7304006;19;20285;-91
2023/11/08 08:50:33;;;;;;;13.20;5.40;;;9.90;99.90;;;;;;7301267;19;20204;-91
2023/11/08 08:52:59;;;;;;;16.40;5.53;;;9.90;99.90;;;;;;7290645;19;20256;-91
2023/11/08 08:55:25;;;;;;;14.83;4.90;;;10.00;99.90;;;;;;7291182;19;20562;-91
2023/11/08 08:57:50;;;;;;;17.37;5.40;;;10.00;99.90;;;;;;7292953;19;20285;-90
2023/11/08 09:00:21;;;;;;;13.27;5.00;;;10.10;99.90;;;;;;7287827;19;20282;-90
2023/11/08 09:02:47;;;;;;;13.93;4.50;;;10.20;99.90;;;;;;7289092;19;20194;-91
2023/11/08 09:05:13;;;;;;;14.33;4.97;;;10.30;99.90;;;;;;7292098;19;20208;-90
2023/11/08 09:07:39;;;;;;;12.67;4.03;;;10.40;99.90;;;;;;7290468;19;20191;-90
2023/11/08 09:10:06;;;;;;;12.97;4.60;;;10.50;99.90;;;;;;7312223;19;20184;-91
2023/11/08 09:12:32;;;;;;;11.00;4.00;;;10.50;99.90;;;;;;7290677;19;20208;-90
2023/11/08 09:14:58;;;;;;;13.93;4.57;;;10.50;99.90;;;;;;7290379;19;20264;-91
2023/11/08 09:17:24;;;;;;;14.40;3.93;;;10.50;99.90;;;;;;7287092;19;20194;-91
2023/11/08 09:19:51;;;;;;;13.73;4.23;;;10.50;99.90;;;;;;7288300;19;20189;-91
2023/11/08 09:22:17;;;;;;;14.17;4.10;;;10.50;99.90;;;;;;7287982;19;20218;-91
2023/11/08 09:24:43;;;;;;;13.77;4.30;;;10.50;99.90;;;;;;7287472;19;20193;-91
2023/11/08 09:27:09;;;;;;;15.20;4.40;;;10.50;99.90;;;;;;7289788;19;20182;-90
2023/11/08 09:29:35;;;;;;;12.20;3.93;;;10.60;99.90;;;;;;7310236;19;20191;-91
2023/11/08 09:32:04;;;;;;;13.13;3.70;;;10.50;99.90;;;;;;7286026;19;20199;-90
2023/11/08 09:34:31;;;;;;;11.57;3.60;;;10.60;99.90;;;;;;7285037;19;20202;-91
2023/11/08 09:37:00;;;;;;;12.37;3.73;;;10.50;99.90;;;;;;7287266;19;20476;-91
2023/11/08 09:39:30;;;;;;;11.37;3.70;;;10.50;99.90;;;;;;7287604;19;20206;-90
2023/11/08 09:41:56;;;;;;;13.17;4.07;;;10.60;99.90;;;;;;7287633;19;20188;-91
2023/11/08 09:44:26;;;;;;;14.70;3.90;;;10.70;99.90;;;;;;7288698;19;20218;-91
2023/11/08 09:46:54;;;;;;;11.90;4.27;;;10.70;99.90;;;;;;7286626;19;20203;-91
2023/11/08 09:49:23;;;;;;;11.13;3.40;;;10.80;99.90;;;;;;7287019;19;20226;-90
2023/11/08 09:51:52;;;;;;;12.37;3.63;;;11.20;99.90;;;;;;7287294;19;20184;-91
2023/11/08 09:54:18;;;;;;;11.03;3.03;;;12.00;99.90;;;;;;7285475;19;20196;-91
2023/11/08 09:56:45;;;;;;;11.90;3.10;;;12.00;99.90;;;;;;7286258;19;20215;-91
2023/11/08 09:59:15;;;;;;;17.87;3.10;;;12.50;99.90;;;;;;7284264;19;20200;-92
2023/11/08 10:01:47;;;;;;;10.03;2.77;;;13.30;99.90;;;;;;7285165;19;20219;-92
2023/11/08 10:04:15;;;;;;;11.13;2.70;;;14.70;99.90;;;;;;7286215;19;20194;-92
2023/11/08 10:06:42;;;;;;;6.80;2.43;;;15.60;99.90;;;;;;7286911;19;20640;-91
2023/11/08 10:09:08;;;;;;;11.33;2.43;;;15.30;99.90;;;;;;7300728;19;20177;-91
2023/11/08 10:11:42;;;;;;;11.63;2.40;;;14.80;99.90;;;;;;7307567;19;20245;-91
2023/11/08 10:14:08;;;;;;;10.10;2.20;;;14.20;99.90;;;;;;7274800;19;20200;-90
2023/11/08 10:16:46;;;;;;;9.17;2.27;;;13.80;99.90;;;;;;7308717;19;20191;-91
2023/11/08 10:19:12;;;;;;;10.57;2.60;;;13.40;99.90;;;;;;7281873;19;20194;-91
2023/11/08 10:21:45;;;;;;;7.73;2.40;;;13.20;99.90;;;;;;7297048;19;20211;-91
2023/11/08 10:24:15;;;;;;;9.77;2.10;;;13.50;99.90;;;;;;7287304;19;20189;-91
2023/11/08 10:26:48;;;;;;;10.53;2.80;;;13.80;99.90;;;;;;7289127;19;20174;-91
2023/11/08 10:29:14;;;;;;;8.07;2.73;;;13.90;99.90;;;;;;7288450;19;20188;-91
2023/11/08 10:31:44;;;;;;;9.00;2.17;;;14.00;99.90;;;;;;7294961;19;20229;-91
2023/11/08 10:34:12;;;;;;;7.77;1.90;;;14.10;99.90;;;;;;7297920;19;20191;-91
2023/11/08 10:36:39;;;;;;;6.27;1.63;;;14.60;99.90;;;;;;7314945;19;20199;-91
2023/11/08 10:39:15;;;;;;;8.70;2.13;;;14.90;99.90;;;;;;7323991;19;20192;-92
2023/11/08 10:41:52;;;;;;;9.43;1.80;;;15.00;99.90;;;;;;7277575;19;20188;-92
2023/11/08 10:44:22;;;;;;;8.23;1.80;;;15.10;99.90;;;;;;7288888;19;20226;-91
2023/11/08 10:46:59;;;;;;;9.53;2.00;;;15.00;99.90;;;;;;7287911;19;20187;-91
2023/11/08 10:49:25;;;;;;;8.47;1.77;;;15.40;99.90;;;;;;7288031;19;20194;-91
2023/11/08 10:51:53;;;;;;;6.07;1.70;;;15.20;99.90;;;;;;7287806;19;20190;-91
2023/11/08 10:54:19;;;;;;;10.63;1.67;;;14.60;99.90;;;;;;7287153;19;20192;-90
2023/11/08 10:56:49;;;;;;;8.90;1.80;;;14.80;99.90;;;;;;7287030;19;20198;-93
2023/11/08 10:59:18;;;;;;;7.20;1.73;;;14.90;99.90;;;;;;7286799;19;20188;-92
2023/11/08 11:01:51;;;;;;;8.47;1.77;;;15.00;99.90;;;;;;7284907;19;20187;-91
2023/11/08 11:04:28;;;;;;;14.03;1.83;;;15.40;99.90;;;;;;7285038;19;20193;-92
2023/11/08 11:06:57;;;;;;;9.80;1.90;;;15.60;99.90;;;;;;7286275;19;20548;-91
2023/11/08 11:09:24;;;;;;;8.57;1.93;;;15.20;99.90;;;;;;7287081;19;20320;-91
2023/11/08 11:11:59;;;;;;;10.03;1.93;;;14.80;99.90;;;;;;7286017;19;20300;-91
2023/11/08 11:14:43;;;;;;;;;;;;;;;;;;;;;
2023/11/08 11:17:33;;;;;;;8.30;1.83;;;14.20;99.90;;;;;;7262524;19;20185;-91
2023/11/08 11:20:12;;;;;;;9.40;1.60;;;13.80;99.90;;;;;;7284820;19;20190;-91
2023/11/08 11:22:42;;;;;;;8.93;2.03;;;13.60;99.90;;;;;;7271969;19;20196;-91
2023/11/08 11:25:11;;;;;;;7.00;2.00;;;13.60;99.90;;;;;;7297315;19;20186;-91
2023/11/08 11:27:43;;;;;;;8.33;1.90;;;14.00;99.90;;;;;;7306223;19;20583;-91
2023/11/08 11:30:17;;;;;;;9.13;1.90;;;13.90;99.90;;;;;;7260163;19;20200;-91
2023/11/08 11:32:47;;;;;;;9.50;2.03;;;13.80;99.90;;;;;;7281152;19;20256;-90
2023/11/08 11:35:17;;;;;;;8.33;2.00;;;13.50;99.90;;;;;;7283791;19;20305;-90
2023/11/08 11:37:43;;;;;;;7.67;1.90;;;13.20;99.90;;;;;;7278384;19;20193;-91
2023/11/08 11:40:09;;;;;;;9.63;2.30;;;13.20;99.90;;;;;;7288115;19;20204;-90
2023/11/08 11:42:35;;;;;;;9.00;2.10;;;13.10;99.90;;;;;;7306470;19;20186;-91
2023/11/08 11:45:08;;;;;;;10.13;2.20;;;13.10;99.90;;;;;;7283701;19;20193;-91
2023/11/08 11:47:36;;;;;;;8.37;1.80;;;13.00;99.90;;;;;;7282661;19;20192;-90
2023/11/08 11:50:07;;;;;;;10.07;1.97;;;12.80;99.90;;;;;;7282895;19;20190;-91
2023/11/08 11:52:35;;;;;;;5.83;1.77;;;12.60;99.90;;;;;;7282535;19;20192;-92
2023/11/08 11:55:04;;;;;;;9.37;2.13;;;12.50;99.90;;;;;;7284094;19;20193;-91
2023/11/08 11:57:30;;;;;;;9.30;2.23;;;12.40;99.90;;;;;;7284134;19;20196;-91
2023/11/08 11:59:58;;;;;;;10.60;2.27;;;12.40;99.90;;;;;;7282250;19;20192;-90
2023/11/08 12:02:28;;;;;;;10.47;2.03;;;12.40;99.90;;;;;;7281522;19;20192;-90
2023/11/08 12:04:56;;;;;;;11.07;2.50;;;12.30;99.90;;;;;;7283525;19;20232;-91
2023/11/08 12:07:22;;;;;;;7.50;2.00;;;12.30;99.90;;;;;;7283280;19;20194;-88
2023/11/08 12:09:49;;;;;;;10.53;2.10;;;12.10;99.90;;;;;;7283064;19;20209;-90
2023/11/08 12:12:28;;;;;;;8.17;2.20;;;12.00;99.90;;;;;;7282543;19;20204;-90
2023/11/08 12:14:57;;;;;;;9.77;1.80;;;12.00;99.90;;;;;;7281512;19;20199;-90
2023/11/08 12:17:24;;;;;;;8.17;2.13;;;12.00;99.90;;;;;;7281720;19;20181;-90
2023/11/08 12:19:53;;;;;;;9.47;2.60;;;12.00;99.90;;;;;;7281413;19;20196;-90
2023/11/08 12:22:21;;;;;;;9.27;2.20;;;12.10;99.90;;;;;;7280921;19;20203;-90
2023/11/08 12:24:48;;;;;;;9.10;2.60;;;12.10;99.90;;;;;;7277821;19;20691;-91
2023/11/08 12:27:15;;;;;;;8.73;2.00;;;12.00;99.90;;;;;;7281303;19;20193;-91
2023/11/08 12:29:44;;;;;;;7.73;1.90;;;12.00;99.90;;;;;;7281432;19;20252;-90
2023/11/08 12:32:11;;;;;;;8.73;1.73;;;12.00;99.90;;;;;;7280963;19;20193;-91
2023/11/08 12:34:40;;;;;;;8.83;2.00;;;12.20;99.90;;;;;;7304240;19;20198;-91
2023/11/08 12:37:06;;;;;;;11.33;2.20;;;12.20;99.90;;;;;;7281923;19;20862;-90
2023/11/08 12:39:41;;;;;;;6.70;2.20;;;12.20;99.90;;;;;;7281472;19;20193;-90
2023/11/08 12:42:14;;;;;;;4.90;1.70;;;12.10;99.90;;;;;;7281895;19;20215;-90
2023/11/08 12:44:48;;;;;;;10.10;1.93;;;12.30;99.90;;;;;;7260723;19;20196;-90
2023/11/08 12:47:15;;;;;;;7.13;1.63;;;12.50;99.90;;;;;;7281652;19;20203;-91
2023/11/08 12:49:46;;;;;;;7.70;1.60;;;12.60;99.90;;;;;;7281050;19;20193;-91